Back to top

Rawlins, WY weather

Rawlins Municipal Airport/Harvey Field, Rawlins, WY: 7/02/2020 10:53
Visibility10 statute milesclear sky
View 7-Day Forecast
Area Summary
Sky/CloudsSky Clear
Weather [last 24 hours]None [rain began 12:47; rain ended 13:18 began 13:26 ended 13:36 ]
Pressure30.17 in.Hg (1022 hPa)
Dew Point26.1 °F (-3.3 °C)
Relative Humidity13.7 %
Last 24-Hour Precip.Trace
Reading TimePrecipitation
6-hr ending 7/1@17:53Trace
Temperature80.1 °F (26.7 °C)red thermometer
Reading TimeMinimum to Maximum Temperature
6-hr ending 7/2@05:5342.1 °F to 53.1 °F (5.6 °C to 11.7 °C)
6-hr ending 7/1@23:5348 °F to 77 °F (8.9 °C to 25 °C)
6-hr ending 7/1@17:5373 °F to 79 °F (22.8 °C to 26.1 °C)
6-hr ending 7/1@11:5345 °F to 73.9 °F (7.2 °C to 23.3 °C)
24-hr ending 7/2@00:5337 °F to 79 °F (2.8 °C to 26.1 °C)
Wind17.3 MPH (15 KT) gusting to 31.1 MPH (27 KT)green arrow pointing 202.5 degrees
Wind FromSouth/Southwest (210 Degrees)
Last Hour's Peak Wind35.7 MPH (31 KT) on 7/2@10:39
Last Hour's Peak Wind FromSouth/Southwest (200 Degrees)
Rolling 24-hr Peak Wind46 MPH (40 KT) on 7/1@13:25
Rolling 24-hr Peak Wind FromSouthwest (220 Degrees)
Twilight Begins05:03Sunshine Yesterday
Sunrise05:37N/A
Sunset20:49
Twilight Ends21:23
METARKRWL 021653Z AUTO 21015G27KT 10SM CLR 27/M03 A3017 RMK AO2 PK WND 20031/1639 SLP121 T02671033
Tags: